createdAt,value
2019-06-10T00:02:05.256Z,21.40
2019-06-10T00:04:38.782Z,21.45
2019-06-10T00:07:12.035Z,21.51
2019-06-10T00:09:44.491Z,21.45
2019-06-10T00:12:17.063Z,21.46
2019-06-10T00:14:50.966Z,21.37
2019-06-10T00:17:23.683Z,21.35
2019-06-10T00:19:57.145Z,21.38
2019-06-10T00:22:31.528Z,21.39
2019-06-10T00:25:07.313Z,21.32
2019-06-10T00:27:42.045Z,21.30
2019-06-10T00:30:13.861Z,21.27
2019-06-10T00:32:46.434Z,21.30
2019-06-10T00:35:21.117Z,21.30
2019-06-10T00:37:53.663Z,21.25
2019-06-10T00:40:26.134Z,21.19
2019-06-10T00:43:00.071Z,21.13
2019-06-10T00:45:32.769Z,21.07
2019-06-10T00:48:15.780Z,21.04
2019-06-10T00:50:41.391Z,21.03
2019-06-10T00:53:14.823Z,20.97
2019-06-10T00:55:47.339Z,21.01
2019-06-10T00:58:21.634Z,21.04
2019-06-10T01:00:53.794Z,21.18
2019-06-10T01:03:26.325Z,21.29
2019-06-10T01:06:01.136Z,21.28
2019-06-10T01:08:33.124Z,21.29
2019-06-10T01:11:12.526Z,21.28
2019-06-10T01:13:41.377Z,21.39
2019-06-10T01:16:15.507Z,21.45
2019-06-10T01:18:51.069Z,21.47
2019-06-10T01:21:23.599Z,21.42
2019-06-10T01:23:56.049Z,21.40
2019-06-10T01:26:30.871Z,21.38
2019-06-10T01:29:03.007Z,21.33
2019-06-10T01:31:35.477Z,21.34
2019-06-10T01:34:07.899Z,21.27
2019-06-10T01:36:40.778Z,21.22
2019-06-10T01:39:14.877Z,21.19
2019-06-10T01:41:47.759Z,21.16
2019-06-10T01:44:22.010Z,21.06
2019-06-10T01:46:54.502Z,21.02
2019-06-10T01:49:27.250Z,20.96
2019-06-10T01:52:01.677Z,20.85
2019-06-10T01:54:34.769Z,20.65
2019-06-10T01:57:07.742Z,20.32
2019-06-10T01:59:41.293Z,20.04
2019-06-10T02:02:17.293Z,19.84
2019-06-10T02:04:51.754Z,19.61
2019-06-10T02:07:24.762Z,19.34
2019-06-10T02:09:57.197Z,19.20
2019-06-10T02:12:31.531Z,19.21
2019-06-10T02:15:07.800Z,19.34
2019-06-10T02:17:41.720Z,19.65
2019-06-10T02:20:16.855Z,19.96
2019-06-10T02:22:51.577Z,20.28
2019-06-10T02:25:24.245Z,20.68
2019-06-10T02:27:56.797Z,21.15
2019-06-10T02:30:41.758Z,21.64
2019-06-10T02:33:03.674Z,22.32
2019-06-10T02:35:43.910Z,22.93
2019-06-10T02:38:10.315Z,23.44
2019-06-10T02:40:43.679Z,23.74
2019-06-10T02:43:20.970Z,24.03
2019-06-10T02:45:53.103Z,24.30
2019-06-10T02:48:30.446Z,24.59
2019-06-10T02:51:07.516Z,25.04
2019-06-10T02:53:43.086Z,25.47
2019-06-10T02:56:17.730Z,25.80
2019-06-10T02:58:53.249Z,26.15
2019-06-10T03:01:31.892Z,26.38
2019-06-10T03:03:58.332Z,26.52
2019-06-10T03:06:36.301Z,26.64
2019-06-10T03:09:07.226Z,26.82
2019-06-10T03:11:41.531Z,27.20
2019-06-10T03:14:16.235Z,27.56
2019-06-10T03:16:52.587Z,27.96
2019-06-10T03:19:41.856Z,28.06
2019-06-10T03:22:02.610Z,28.21
2019-06-10T03:24:34.486Z,28.24
2019-06-10T03:27:08.333Z,28.06
2019-06-10T03:29:42.143Z,28.07
2019-06-10T03:32:17.687Z,27.87
2019-06-10T03:34:49.663Z,27.75
2019-06-10T03:37:23.245Z,27.96
2019-06-10T03:39:56.349Z,28.11
2019-06-10T03:42:28.868Z,28.14
2019-06-10T03:45:03.322Z,28.18
2019-06-10T03:47:35.665Z,28.34
2019-06-10T03:50:13.212Z,28.50
2019-06-10T03:52:46.162Z,28.65
2019-06-10T03:55:19.348Z,28.82
2019-06-10T03:57:52.653Z,28.81
2019-06-10T04:00:27.303Z,28.97
2019-06-10T04:02:59.864Z,29.23
2019-06-10T04:05:33.127Z,29.25
2019-06-10T04:08:05.717Z,29.43
2019-06-10T04:10:38.435Z,29.67
2019-06-10T04:13:13.192Z,30.18
2019-06-10T04:15:45.954Z,30.87
2019-06-10T04:18:19.688Z,31.38
2019-06-10T04:20:52.948Z,32.20
2019-06-10T04:23:26.913Z,33.36
2019-06-10T04:26:02.047Z,34.20
2019-06-10T04:28:34.224Z,35.09
2019-06-10T04:31:06.821Z,35.13
2019-06-10T04:33:39.311Z,34.97
2019-06-10T04:36:13.432Z,34.91
2019-06-10T04:38:45.919Z,34.77
2019-06-10T04:41:18.425Z,34.37
2019-06-10T04:43:52.999Z,34.20
2019-06-10T04:46:26.477Z,34.35
2019-06-10T04:49:02.496Z,34.46
2019-06-10T04:51:34.307Z,34.44
2019-06-10T04:54:07.365Z,34.79
2019-06-10T04:56:39.970Z,35.21
2019-06-10T04:59:12.732Z,36.41
2019-06-10T05:01:45.447Z,37.13
2019-06-10T05:04:18.921Z,37.82
2019-06-10T05:06:52.669Z,37.42
2019-06-10T05:09:27.620Z,36.65
2019-06-10T05:11:59.729Z,36.64
2019-06-10T05:14:33.404Z,36.35
2019-06-10T05:17:06.400Z,36.01
2019-06-10T05:19:39.143Z,36.01
2019-06-10T05:22:12.402Z,36.40
2019-06-10T05:24:47.921Z,36.30
2019-06-10T05:27:25.353Z,36.61
2019-06-10T05:29:57.096Z,37.04
2019-06-10T05:32:33.450Z,36.67
2019-06-10T05:35:07.733Z,37.61
2019-06-10T05:37:42.437Z,38.68
2019-06-10T05:40:15.015Z,38.97
2019-06-10T05:42:52.913Z,39.45
2019-06-10T05:45:27.477Z,40.16
2019-06-10T05:48:02.959Z,40.80
2019-06-10T05:50:35.436Z,40.81
2019-06-10T05:53:07.887Z,40.94
2019-06-10T05:55:42.729Z,39.52
2019-06-10T05:58:16.045Z,38.51
2019-06-10T06:00:53.126Z,37.85
2019-06-10T06:03:27.800Z,37.65
2019-06-10T06:06:02.895Z,37.79
2019-06-10T06:08:35.484Z,37.82
2019-06-10T06:11:08.106Z,37.64
2019-06-10T06:13:42.981Z,37.53
2019-06-10T06:16:15.012Z,36.65
2019-06-10T06:18:47.567Z,36.36
2019-06-10T06:21:28.885Z,36.55
2019-06-10T06:23:54.262Z,37.08
2019-06-10T06:26:28.456Z,37.34
2019-06-10T06:29:02.232Z,37.06
2019-06-10T06:31:36.505Z,37.68
2019-06-10T06:34:09.568Z,37.51
2019-06-10T06:36:42.359Z,37.45
2019-06-10T06:39:14.840Z,37.05
2019-06-10T06:41:48.949Z,36.46
2019-06-10T06:44:23.457Z,35.59
2019-06-10T06:46:56.097Z,35.23
2019-06-10T06:49:28.413Z,34.38
2019-06-10T06:52:02.866Z,33.83
2019-06-10T06:54:42.320Z,33.37
2019-06-10T06:57:14.083Z,33.07
2019-06-10T06:59:46.609Z,32.92
2019-06-10T07:02:22.757Z,32.81
2019-06-10T07:04:55.731Z,32.79
2019-06-10T07:07:30.127Z,32.69
2019-06-10T07:10:03.573Z,32.63
2019-06-10T07:12:39.408Z,32.62
2019-06-10T07:15:12.845Z,32.72
2019-06-10T07:17:46.060Z,32.83
2019-06-10T07:20:20.282Z,32.95
2019-06-10T07:22:53.301Z,32.98
2019-06-10T07:25:26.006Z,33.22
2019-06-10T07:28:01.977Z,33.61
2019-06-10T07:30:37.655Z,34.29
2019-06-10T07:33:08.731Z,35.03
2019-06-10T07:35:43.752Z,35.22
2019-06-10T07:38:16.265Z,35.54
2019-06-10T07:40:53.053Z,35.83
2019-06-10T07:43:27.611Z,36.35
2019-06-10T07:46:03.417Z,36.86
2019-06-10T07:48:37.193Z,37.06
2019-06-10T07:51:12.889Z,37.11
2019-06-10T07:53:46.692Z,37.22
2019-06-10T07:56:18.804Z,37.12
2019-06-10T07:58:53.591Z,37.52
2019-06-10T08:01:26.080Z,38.12
2019-06-10T08:03:58.560Z,38.28
2019-06-10T08:06:36.109Z,38.28
2019-06-10T08:09:12.634Z,38.37
2019-06-10T08:11:48.780Z,38.48
2019-06-10T08:14:22.244Z,38.55
2019-06-10T08:16:56.519Z,38.17
2019-06-10T08:19:35.766Z,38.37
2019-06-10T08:22:05.344Z,38.50
2019-06-10T08:24:39.379Z,39.19
2019-06-10T08:27:13.361Z,39.33
2019-06-10T08:29:49.185Z,39.13
2019-06-10T08:32:24.229Z,38.85
2019-06-10T08:34:56.230Z,38.59
2019-06-10T08:37:28.544Z,38.67
2019-06-10T08:40:03.654Z,38.64
2019-06-10T08:42:34.907Z,38.45
2019-06-10T08:45:07.539Z,38.70
2019-06-10T08:47:41.151Z,38.87
2019-06-10T08:50:15.344Z,39.01
2019-06-10T08:53:03.938Z,39.21
2019-06-10T08:55:23.649Z,39.19
2019-06-10T08:57:56.763Z,38.73
2019-06-10T09:00:29.707Z,38.31
2019-06-10T09:03:04.162Z,38.43
2019-06-10T09:05:38.705Z,38.61
2019-06-10T09:08:13.001Z,39.33
2019-06-10T09:10:49.330Z,39.62
2019-06-10T09:13:19.705Z,39.65
2019-06-10T09:16:09.980Z,39.29
2019-06-10T09:18:26.661Z,39.26
2019-06-10T09:20:59.221Z,38.95
2019-06-10T09:23:33.188Z,39.25
2019-06-10T09:26:05.974Z,39.77
2019-06-10T09:28:39.427Z,40.21
2019-06-10T09:31:13.976Z,40.01
2019-06-10T09:33:50.222Z,39.63
2019-06-10T09:36:20.331Z,39.55
2019-06-10T09:38:54.987Z,40.11
2019-06-10T09:41:39.447Z,40.46
2019-06-10T09:44:03.277Z,40.95
2019-06-10T09:46:35.690Z,41.24
2019-06-10T09:49:08.147Z,41.56
2019-06-10T09:51:45.820Z,41.63
2019-06-10T09:54:16.419Z,41.57
2019-06-10T09:56:50.468Z,41.03
2019-06-10T09:59:23.695Z,40.50
2019-06-10T10:01:58.845Z,40.21
2019-06-10T10:04:32.633Z,39.78
2019-06-10T10:07:04.713Z,39.98
2019-06-10T10:09:37.257Z,40.17
2019-06-10T10:12:12.248Z,40.49
2019-06-10T10:14:46.942Z,40.26
2019-06-10T10:17:18.103Z,40.26
2019-06-10T10:19:54.839Z,40.03
2019-06-10T10:22:26.333Z,38.98
2019-06-10T10:24:58.684Z,36.91
2019-06-10T10:27:32.306Z,36.33
2019-06-10T10:30:07.885Z,35.23
2019-06-10T10:32:44.306Z,34.59
2019-06-10T10:35:15.529Z,34.13
2019-06-10T10:37:49.105Z,33.87
2019-06-10T10:40:24.212Z,33.74
2019-06-10T10:43:16.265Z,33.75
2019-06-10T10:45:32.536Z,33.95
2019-06-10T10:48:06.023Z,33.95
2019-06-10T10:50:38.319Z,33.84
2019-06-10T10:53:12.839Z,33.78
2019-06-10T10:55:45.251Z,33.91
2019-06-10T10:58:17.853Z,34.00
2019-06-10T11:00:54.431Z,34.10
2019-06-10T11:03:24.481Z,34.23
2019-06-10T11:06:00.670Z,34.16
2019-06-10T11:08:33.256Z,34.32
2019-06-10T11:11:06.015Z,34.43
2019-06-10T11:13:38.470Z,34.41
2019-06-10T11:16:11.947Z,34.55
2019-06-10T11:18:47.777Z,34.25
2019-06-10T11:21:19.763Z,34.26
2019-06-10T11:23:59.929Z,34.43
2019-06-10T11:26:32.868Z,34.45
2019-06-10T11:29:07.221Z,34.40
2019-06-10T11:31:42.542Z,34.49
2019-06-10T11:34:19.730Z,34.76
2019-06-10T11:36:53.557Z,34.67
2019-06-10T11:39:33.828Z,34.73
2019-06-10T11:42:07.040Z,34.90
2019-06-10T11:44:43.035Z,34.82
2019-06-10T11:47:15.361Z,34.89
2019-06-10T11:49:48.959Z,34.89
2019-06-10T11:52:23.070Z,34.68
2019-06-10T11:55:09.164Z,34.70
2019-06-10T11:57:32.376Z,34.85
2019-06-10T12:00:13.629Z,34.67
2019-06-10T12:02:42.343Z,34.73
2019-06-10T12:05:17.412Z,34.75
2019-06-10T12:07:51.807Z,35.00
2019-06-10T12:10:27.849Z,35.34
2019-06-10T12:13:06.140Z,35.53
2019-06-10T12:16:19.847Z,35.54
2019-06-10T12:18:09.711Z,35.23
2019-06-10T12:20:42.659Z,35.04
2019-06-10T12:23:15.194Z,34.55
2019-06-10T12:25:48.112Z,34.25
2019-06-10T12:28:21.042Z,34.14
2019-06-10T12:30:58.248Z,33.86
2019-06-10T12:33:33.361Z,33.86
2019-06-10T12:36:07.697Z,34.19
2019-06-10T12:38:43.620Z,34.52
2019-06-10T12:41:16.585Z,34.40
2019-06-10T12:43:48.643Z,33.99
2019-06-10T12:46:23.219Z,33.40
2019-06-10T12:48:59.297Z,33.03
2019-06-10T12:51:29.503Z,32.74
2019-06-10T12:54:04.812Z,32.43
2019-06-10T12:56:35.854Z,32.36
2019-06-10T12:59:09.950Z,32.29
2019-06-10T13:01:44.789Z,32.26
2019-06-10T13:04:18.124Z,32.27
2019-06-10T13:06:52.597Z,32.22
2019-06-10T13:09:26.380Z,32.09
2019-06-10T13:11:59.815Z,31.94
2019-06-10T13:14:33.875Z,31.80
2019-06-10T13:17:08.353Z,31.57
2019-06-10T13:19:43.034Z,31.37
2019-06-10T13:22:15.623Z,31.16
2019-06-10T13:24:48.001Z,31.03
2019-06-10T13:27:22.742Z,31.13
2019-06-10T13:29:56.307Z,31.52
2019-06-10T13:32:29.367Z,32.00
2019-06-10T13:35:03.561Z,32.51
2019-06-10T13:37:35.961Z,32.97
2019-06-10T13:40:10.739Z,33.28
2019-06-10T13:42:42.930Z,33.15
2019-06-10T13:45:15.316Z,33.15
2019-06-10T13:47:48.207Z,33.05
2019-06-10T13:50:22.065Z,32.50
2019-06-10T13:52:58.467Z,31.98
2019-06-10T13:55:33.004Z,31.47
2019-06-10T13:58:07.989Z,31.12
2019-06-10T14:00:46.063Z,30.92
2019-06-10T14:03:16.270Z,30.82
2019-06-10T14:05:48.742Z,30.82
2019-06-10T14:08:23.264Z,30.70
2019-06-10T14:10:55.544Z,30.64
2019-06-10T14:13:28.034Z,30.64
2019-06-10T14:16:03.501Z,30.90
2019-06-10T14:18:36.701Z,31.25
2019-06-10T14:21:14.042Z,31.64
2019-06-10T14:23:44.066Z,31.84
2019-06-10T14:26:36.647Z,31.91
2019-06-10T14:28:56.368Z,31.82
2019-06-10T14:31:42.772Z,31.79
2019-06-10T14:34:04.333Z,31.65
2019-06-10T14:36:37.034Z,31.46
2019-06-10T14:39:10.189Z,31.30
2019-06-10T14:41:43.375Z,31.31
2019-06-10T14:44:17.883Z,31.29
2019-06-10T14:46:50.176Z,31.20
2019-06-10T14:49:22.621Z,31.21
2019-06-10T14:51:56.639Z,31.17
2019-06-10T14:54:32.106Z,31.20
2019-06-10T14:57:05.236Z,31.21
2019-06-10T14:59:38.026Z,31.26
2019-06-10T15:02:12.876Z,31.30
2019-06-10T15:04:46.991Z,31.38
2019-06-10T15:07:20.841Z,31.44
2019-06-10T15:09:53.966Z,31.56
2019-06-10T15:12:26.406Z,31.63
2019-06-10T15:14:59.444Z,31.66
2019-06-10T15:17:32.548Z,31.65
2019-06-10T15:20:07.459Z,31.65
2019-06-10T15:22:40.016Z,31.56
2019-06-10T15:25:16.877Z,31.45
2019-06-10T15:27:48.343Z,31.35
2019-06-10T15:30:26.637Z,31.03
2019-06-10T15:32:55.393Z,30.86
2019-06-10T15:35:27.994Z,30.58
2019-06-10T15:38:03.961Z,30.28
2019-06-10T15:40:34.865Z,30.02
2019-06-10T15:43:07.793Z,29.79
2019-06-10T15:45:40.420Z,29.58
2019-06-10T15:48:16.633Z,29.36
2019-06-10T15:50:47.316Z,29.22
2019-06-10T15:53:25.323Z,29.10
2019-06-10T15:56:13.313Z,29.01
2019-06-10T15:58:31.976Z,28.88
2019-06-10T16:01:04.500Z,28.81
2019-06-10T16:03:37.363Z,28.74
2019-06-10T16:06:12.039Z,28.69
2019-06-10T16:08:44.783Z,28.71
2019-06-10T16:11:18.923Z,28.64
2019-06-10T16:13:53.382Z,28.73
2019-06-10T16:16:26.053Z,28.88
2019-06-10T16:18:58.622Z,28.89
2019-06-10T16:21:31.225Z,28.86
2019-06-10T16:24:03.746Z,28.88
2019-06-10T16:26:36.444Z,28.83
2019-06-10T16:29:08.895Z,28.72
2019-06-10T16:31:42.542Z,28.73
2019-06-10T16:34:17.135Z,28.71
2019-06-10T16:36:53.365Z,28.70
2019-06-10T16:39:32.436Z,28.68
2019-06-10T16:42:07.590Z,28.60
2019-06-10T16:44:43.140Z,28.60
2019-06-10T16:47:16.943Z,28.64
2019-06-10T16:49:52.154Z,28.56
2019-06-10T16:52:27.697Z,28.55
2019-06-10T16:55:02.296Z,28.47
2019-06-10T16:57:35.508Z,28.46
2019-06-10T17:00:13.845Z,28.38
2019-06-10T17:02:44.710Z,28.37
2019-06-10T17:05:18.519Z,28.28
2019-06-10T17:07:52.661Z,28.23
2019-06-10T17:10:28.197Z,28.26
2019-06-10T17:13:03.126Z,28.22
2019-06-10T17:15:36.194Z,28.11
2019-06-10T17:18:13.081Z,28.06
2019-06-10T17:20:46.165Z,27.99
2019-06-10T17:23:26.988Z,27.94
2019-06-10T17:25:58.595Z,27.90
2019-06-10T17:28:36.617Z,27.97
2019-06-10T17:31:07.862Z,27.99
2019-06-10T17:33:42.665Z,27.81
2019-06-10T17:36:15.318Z,27.86
2019-06-10T17:38:47.894Z,27.90
2019-06-10T17:41:23.219Z,27.84
2019-06-10T17:43:55.333Z,27.53
2019-06-10T17:46:29.501Z,27.53
2019-06-10T17:49:03.075Z,27.57
2019-06-10T17:51:36.353Z,27.36
2019-06-10T17:54:09.568Z,27.33
2019-06-10T17:56:42.889Z,27.14
2019-06-10T17:59:16.012Z,27.06
2019-06-10T18:01:52.279Z,27.08
2019-06-10T18:04:25.613Z,26.99
2019-06-10T18:06:59.347Z,27.12
2019-06-10T18:09:36.634Z,27.15
2019-06-10T18:12:07.377Z,27.28
2019-06-10T18:14:42.987Z,27.29
2019-06-10T18:17:16.357Z,27.37
2019-06-10T18:19:53.139Z,27.37
2019-06-10T18:22:26.468Z,27.43
2019-06-10T18:25:03.019Z,27.43
2019-06-10T18:27:36.970Z,27.31
2019-06-10T18:30:14.270Z,27.35
2019-06-10T18:32:48.076Z,27.43
2019-06-10T18:35:22.336Z,27.33
2019-06-10T18:37:56.696Z,27.44
2019-06-10T18:40:33.499Z,27.38
2019-06-10T18:43:07.665Z,27.36
2019-06-10T18:45:42.041Z,27.32
2019-06-10T18:48:15.772Z,27.26
2019-06-10T18:50:49.576Z,27.30
2019-06-10T18:53:23.893Z,27.19
2019-06-10T18:55:59.059Z,27.14
2019-06-10T18:58:36.254Z,27.11
2019-06-10T19:01:12.432Z,27.07
2019-06-10T19:03:46.011Z,26.93
2019-06-10T19:06:22.798Z,26.93
2019-06-10T19:08:55.959Z,26.83
2019-06-10T19:11:31.684Z,26.84
2019-06-10T19:14:05.280Z,26.77
2019-06-10T19:16:44.020Z,26.69
2019-06-10T19:19:18.617Z,26.67
2019-06-10T19:22:04.543Z,26.49
2019-06-10T19:24:28.444Z,26.15
2019-06-10T19:27:05.287Z,25.93
2019-06-10T19:29:45.445Z,25.87
2019-06-10T19:32:13.779Z,25.78
2019-06-10T19:34:51.992Z,25.74
2019-06-10T19:37:25.332Z,25.61
2019-06-10T19:40:01.623Z,25.58
2019-06-10T19:42:37.150Z,25.63
2019-06-10T19:45:12.555Z,25.60
2019-06-10T19:47:46.658Z,25.52
2019-06-10T19:50:20.264Z,25.46
2019-06-10T19:52:57.164Z,25.48
2019-06-10T19:55:32.455Z,25.49
2019-06-10T19:58:06.500Z,25.44
2019-06-10T20:00:41.484Z,25.45
2019-06-10T20:03:15.821Z,25.40
2019-06-10T20:05:52.749Z,25.34
2019-06-10T20:08:26.281Z,25.12
2019-06-10T20:11:03.391Z,25.09
2019-06-10T20:13:38.941Z,25.16
2019-06-10T20:16:12.144Z,25.23
2019-06-10T20:18:48.243Z,25.25
2019-06-10T20:21:22.706Z,25.20
2019-06-10T20:23:56.693Z,25.19
2019-06-10T20:26:32.981Z,25.15
2019-06-10T20:29:05.421Z,25.21
2019-06-10T20:31:40.091Z,25.19
2019-06-10T20:34:13.400Z,25.22
2019-06-10T20:36:46.942Z,25.22
2019-06-10T20:39:24.915Z,25.22
2019-06-10T20:41:58.249Z,25.14
2019-06-10T20:44:32.576Z,25.10
2019-06-10T20:47:05.058Z,25.11
2019-06-10T20:49:37.840Z,25.08
2019-06-10T20:52:13.277Z,25.04
2019-06-10T20:54:46.295Z,24.98
2019-06-10T20:57:18.873Z,25.03
2019-06-10T20:59:52.799Z,24.93
2019-06-10T21:02:26.266Z,24.86
2019-06-10T21:05:02.606Z,24.85
2019-06-10T21:07:39.219Z,24.76
2019-06-10T21:10:12.898Z,24.73
2019-06-10T21:12:49.432Z,24.84
2019-06-10T21:15:22.963Z,24.86
2019-06-10T21:17:55.471Z,24.86
2019-06-10T21:20:28.049Z,24.90
2019-06-10T21:23:03.110Z,24.91
2019-06-10T21:25:36.122Z,24.84
2019-06-10T21:28:08.721Z,24.79
2019-06-10T21:30:47.030Z,24.64
2019-06-10T21:33:15.490Z,24.60
2019-06-10T21:35:48.953Z,24.43
2019-06-10T21:38:23.203Z,24.14
2019-06-10T21:40:56.151Z,24.02
2019-06-10T21:43:28.648Z,23.90
2019-06-10T21:46:03.675Z,23.82
2019-06-10T21:48:37.386Z,23.40
2019-06-10T21:51:10.084Z,23.38
2019-06-10T21:53:42.641Z,23.55
2019-06-10T21:56:15.032Z,23.52
2019-06-10T21:58:48.842Z,23.55
2019-06-10T22:01:22.510Z,23.53
2019-06-10T22:04:00.849Z,23.53
2019-06-10T22:06:30.126Z,23.59
2019-06-10T22:09:03.985Z,23.65
2019-06-10T22:11:37.845Z,23.63
2019-06-10T22:14:12.110Z,23.52
2019-06-10T22:16:46.195Z,23.56
2019-06-10T22:19:19.143Z,23.59
2019-06-10T22:21:53.659Z,23.62
2019-06-10T22:24:25.933Z,23.86
2019-06-10T22:26:58.729Z,23.75
2019-06-10T22:29:32.244Z,23.52
2019-06-10T22:32:06.512Z,23.48
2019-06-10T22:34:39.157Z,23.49
2019-06-10T22:37:12.494Z,23.50
2019-06-10T22:39:45.678Z,23.43
2019-06-10T22:42:18.942Z,23.52
2019-06-10T22:44:54.512Z,23.57
2019-06-10T22:47:25.661Z,23.50
2019-06-10T22:49:59.964Z,23.31
2019-06-10T22:52:32.430Z,23.23
2019-06-10T22:55:09.330Z,23.25
2019-06-10T22:57:43.899Z,23.19
2019-06-10T23:00:16.338Z,23.17
2019-06-10T23:02:49.844Z,23.09
2019-06-10T23:05:23.294Z,23.15
2019-06-10T23:07:57.412Z,23.15
2019-06-10T23:10:30.427Z,23.14
2019-06-10T23:13:03.129Z,23.11
2019-06-10T23:15:35.705Z,23.13
2019-06-10T23:18:08.256Z,23.07
2019-06-10T23:20:42.733Z,22.94
2019-06-10T23:23:15.368Z,22.87
2019-06-10T23:25:47.882Z,22.87
2019-06-10T23:28:22.192Z,22.89
2019-06-10T23:30:57.286Z,22.76
2019-06-10T23:33:28.625Z,22.75
2019-06-10T23:36:03.723Z,22.71
2019-06-10T23:38:35.433Z,22.71
2019-06-10T23:41:07.798Z,22.74
2019-06-10T23:43:42.314Z,22.75
2019-06-10T23:46:14.562Z,22.66
2019-06-10T23:48:47.106Z,22.70
2019-06-10T23:51:19.639Z,22.62
2019-06-10T23:53:55.287Z,22.57
2019-06-10T23:56:26.869Z,22.58
2019-06-10T23:59:00.365Z,22.48
